Dart — OUOV2 — position and weather

sailwx.info

Track history (hours):
 
Tides and Currents Weather Stations Pressure Air Temp Water Temp Dewpoint Dewpoint Depression Visibility Wind Speed Wind Dir Waves Ship Positions

Dart

Last reported at 2016-Aug-30 04:15 UTC. Time now 2016-Aug-30 20:51 UTC.
Position N 65°21' E 012°03'.

Length 66 m; draft 4.2 m.

Type: Tanker. MMSI: 219416000.

Date/timePositionNaut miles runAvg speedWind from/ knotsBaromVisibWave heightAir tempDewpointWater temp
2016-Aug-30 04:15N 65°21' E 012°03'710.0
2016-Aug-30 03:33N 65°15' E 011°56'10 9.7
2016-Aug-30 02:34N 65°06' E 011°49'10 9.6
2016-Aug-30 01:34N 64°58' E 011°35'10 9.6
2016-Aug-30 00:34N 64°53' E 011°17'9 9.5
2016-Aug-29 23:34N 64°46' E 011°02'51 9.4
2016-Aug-29 18:09N 64°04' E 009°54'5 9.1
2016-Aug-29 17:34N 63°60' E 009°47'9 9.2
2016-Aug-29 16:34N 63°51' E 009°40'10 9.7
2016-Aug-29 15:34N 63°43' E 009°31'13 9.0
2016-Aug-29 14:04N 63°32' E 009°13'510.7
2016-Aug-29 13:33N 63°29' E 009°02'239 6.3
2016-Aug-27 23:31N 59°52' E 005°33'9 9.3
2016-Aug-27 22:33N 59°43' E 005°28'1010.3
2016-Aug-27 21:33N 59°35' E 005°15'19 9.5
2016-Aug-27 19:34N 59°16' E 005°20'9 9.3
2016-Aug-27 18:33N 59°08' E 005°27'9 9.3
2016-Aug-27 17:34N 58°59' E 005°33'4 3.5
2016-Aug-27 16:31N 58°55' E 005°36'0 0.0
2016-Aug-27 15:31N 58°55' E 005°36'0 0.0
2016-Aug-27 14:31N 58°55' E 005°36'0 0.0
2016-Aug-27 13:31N 58°55' E 005°36'0 0.0
2016-Aug-27 12:31N 58°55' E 005°36'0 0.0
2016-Aug-27 11:31N 58°55' E 005°36'0 0.0
2016-Aug-27 10:31N 58°55' E 005°36'0 0.0
2016-Aug-27 09:31N 58°55' E 005°36'0 0.0
2016-Aug-27 08:31N 58°55' E 005°36'6 6.3
2016-Aug-27 07:34N 58°50' E 005°30'9 8.9
2016-Aug-27 06:34N 58°41' E 005°29'20 9.8
2016-Aug-27 04:32N 58°25' E 005°49'9 9.7
2016-Aug-27 03:33N 58°18' E 006°02'10 9.5
2016-Aug-27 02:33N 58°12' E 006°16'9 8.9
2016-Aug-27 01:33N 58°06' E 006°28'8 8.2
2016-Aug-27 00:33N 58°01' E 006°41'8 7.9
2016-Aug-26 23:34N 57°58' E 006°55'8 7.9
2016-Aug-26 22:33N 57°56' E 007°10'41 8.3
2016-Aug-26 17:33N 58°07' E 008°25'10 9.7
2016-Aug-26 16:33N 58°14' E 008°39'9 9.2
2016-Aug-26 15:33N 58°20' E 008°51'3010.0
2016-Aug-26 12:32N 58°41' E 009°33'1110.6
2016-Aug-26 11:33N 58°47' E 009°49'1110.9
2016-Aug-26 10:34N 58°52' E 010°08'1010.3
2016-Aug-26 09:33N 58°57' E 010°25'10 9.7
2016-Aug-26 08:33N 59°05' E 010°36'10 9.8
2016-Aug-26 07:34N 59°15' E 010°37'1010.1
2016-Aug-26 06:33N 59°25' E 010°33'6 2.9
2016-Aug-26 04:31N 59°29' E 010°41'0 0.0
2016-Aug-26 03:31N 59°29' E 010°41'0 0.0
2016-Aug-26 02:31N 59°29' E 010°41'0 0.0
2016-Aug-26 01:31N 59°29' E 010°41'0 0.0
2016-Aug-26 00:31N 59°29' E 010°41'3 3.5
2016-Aug-25 23:33N 59°30' E 010°35'10 9.8
2016-Aug-25 22:33N 59°21' E 010°36'1010.2
2016-Aug-25 21:33N 59°10' E 010°39'9 9.2
2016-Aug-25 20:33N 59°02' E 010°35'9 9.1
2016-Aug-25 19:33N 58°56' E 010°21'9 9.0
2016-Aug-25 18:33N 58°52' E 010°06'8 8.5
2016-Aug-25 17:33N 58°48' E 009°51'43 8.5
2016-Aug-25 12:33N 58°20' E 008°49'9 8.5
2016-Aug-25 11:33N 58°14' E 008°37'9 8.7
2016-Aug-25 10:33N 58°08' E 008°25'28 9.0
2016-Aug-25 07:27N 57°56' E 007°38'9 8.8
2016-Aug-25 06:24N 57°56' E 007°20'16 8.7
2016-Aug-25 04:33N 57°59' E 006°51'9 9.3
2016-Aug-25 03:34N 58°03' E 006°35'9 9.3
2016-Aug-25 02:33N 58°09' E 006°21'9 9.4
2016-Aug-25 01:33N 58°15' E 006°09'9 9.0
2016-Aug-25 00:33N 58°21' E 005°56'8 8.5
2016-Aug-24 23:33N 58°27' E 005°45'9 8.6
2016-Aug-24 22:34N 58°34' E 005°35'9 8.9
2016-Aug-24 21:33N 58°42' E 005°27'8 7.7
2016-Aug-24 20:33N 58°50' E 005°27'8 8.4
2016-Aug-24 19:33N 58°58' E 005°33'9 8.9
2016-Aug-24 18:33N 59°07' E 005°29'8 7.9
2016-Aug-24 17:33N 59°13' E 005°20'  
Track history (hours):
 
Tides and Currents Weather Stations Pressure Air Temp Water Temp Dewpoint Dewpoint Depression Visibility Wind Speed Wind Dir Waves Ship Positions

Dart

Last reported at 2016-Aug-30 04:15 UTC. Time now 2016-Aug-30 20:51 UTC.
Position N 65°21' E 012°03'.

Length 66 m; draft 4.2 m.

Type: Tanker. MMSI: 219416000.

Date/timePositionNaut miles runAvg speedWind from/ knotsBaromVisibWave heightAir tempDewpointWater temp
2016-Aug-30 04:15N 65°21' E 012°03'710.0
2016-Aug-30 03:33N 65°15' E 011°56'10 9.7
2016-Aug-30 02:34N 65°06' E 011°49'10 9.6
2016-Aug-30 01:34N 64°58' E 011°35'10 9.6
2016-Aug-30 00:34N 64°53' E 011°17'9 9.5
2016-Aug-29 23:34N 64°46' E 011°02'51 9.4
2016-Aug-29 18:09N 64°04' E 009°54'5 9.1
2016-Aug-29 17:34N 63°60' E 009°47'9 9.2
2016-Aug-29 16:34N 63°51' E 009°40'10 9.7
2016-Aug-29 15:34N 63°43' E 009°31'13 9.0
2016-Aug-29 14:04N 63°32' E 009°13'510.7
2016-Aug-29 13:33N 63°29' E 009°02'239 6.3
2016-Aug-27 23:31N 59°52' E 005°33'9 9.3
2016-Aug-27 22:33N 59°43' E 005°28'1010.3
2016-Aug-27 21:33N 59°35' E 005°15'19 9.5
2016-Aug-27 19:34N 59°16' E 005°20'9 9.3
2016-Aug-27 18:33N 59°08' E 005°27'9 9.3
2016-Aug-27 17:34N 58°59' E 005°33'4 3.5
2016-Aug-27 16:31N 58°55' E 005°36'0 0.0
2016-Aug-27 15:31N 58°55' E 005°36'0 0.0
2016-Aug-27 14:31N 58°55' E 005°36'0 0.0
2016-Aug-27 13:31N 58°55' E 005°36'0 0.0
2016-Aug-27 12:31N 58°55' E 005°36'0 0.0
2016-Aug-27 11:31N 58°55' E 005°36'0 0.0
2016-Aug-27 10:31N 58°55' E 005°36'0 0.0
2016-Aug-27 09:31N 58°55' E 005°36'0 0.0
2016-Aug-27 08:31N 58°55' E 005°36'6 6.3
2016-Aug-27 07:34N 58°50' E 005°30'9 8.9
2016-Aug-27 06:34N 58°41' E 005°29'20 9.8
2016-Aug-27 04:32N 58°25' E 005°49'9 9.7
2016-Aug-27 03:33N 58°18' E 006°02'10 9.5
2016-Aug-27 02:33N 58°12' E 006°16'9 8.9
2016-Aug-27 01:33N 58°06' E 006°28'8 8.2
2016-Aug-27 00:33N 58°01' E 006°41'8 7.9
2016-Aug-26 23:34N 57°58' E 006°55'8 7.9
2016-Aug-26 22:33N 57°56' E 007°10'41 8.3
2016-Aug-26 17:33N 58°07' E 008°25'10 9.7
2016-Aug-26 16:33N 58°14' E 008°39'9 9.2
2016-Aug-26 15:33N 58°20' E 008°51'3010.0
2016-Aug-26 12:32N 58°41' E 009°33'1110.6
2016-Aug-26 11:33N 58°47' E 009°49'1110.9
2016-Aug-26 10:34N 58°52' E 010°08'1010.3
2016-Aug-26 09:33N 58°57' E 010°25'10 9.7
2016-Aug-26 08:33N 59°05' E 010°36'10 9.8
2016-Aug-26 07:34N 59°15' E 010°37'1010.1
2016-Aug-26 06:33N 59°25' E 010°33'6 2.9
2016-Aug-26 04:31N 59°29' E 010°41'0 0.0
2016-Aug-26 03:31N 59°29' E 010°41'0 0.0
2016-Aug-26 02:31N 59°29' E 010°41'0 0.0
2016-Aug-26 01:31N 59°29' E 010°41'0 0.0
2016-Aug-26 00:31N 59°29' E 010°41'3 3.5
2016-Aug-25 23:33N 59°30' E 010°35'10 9.8
2016-Aug-25 22:33N 59°21' E 010°36'1010.2
2016-Aug-25 21:33N 59°10' E 010°39'9 9.2
2016-Aug-25 20:33N 59°02' E 010°35'9 9.1
2016-Aug-25 19:33N 58°56' E 010°21'9 9.0
2016-Aug-25 18:33N 58°52' E 010°06'8 8.5
2016-Aug-25 17:33N 58°48' E 009°51'43 8.5
2016-Aug-25 12:33N 58°20' E 008°49'9 8.5
2016-Aug-25 11:33N 58°14' E 008°37'9 8.7
2016-Aug-25 10:33N 58°08' E 008°25'28 9.0
2016-Aug-25 07:27N 57°56' E 007°38'9 8.8
2016-Aug-25 06:24N 57°56' E 007°20'16 8.7
2016-Aug-25 04:33N 57°59' E 006°51'9 9.3
2016-Aug-25 03:34N 58°03' E 006°35'9 9.3
2016-Aug-25 02:33N 58°09' E 006°21'9 9.4
2016-Aug-25 01:33N 58°15' E 006°09'9 9.0
2016-Aug-25 00:33N 58°21' E 005°56'8 8.5
2016-Aug-24 23:33N 58°27' E 005°45'9 8.6
2016-Aug-24 22:34N 58°34' E 005°35'9 8.9
2016-Aug-24 21:33N 58°42' E 005°27'8 7.7
2016-Aug-24 20:33N 58°50' E 005°27'8 8.4
2016-Aug-24 19:33N 58°58' E 005°33'9 8.9
2016-Aug-24 18:33N 59°07' E 005°29'8 7.9
2016-Aug-24 17:33N 59°13' E 005°20'  

Dump ship's entire track history